sim
Sign-in with your pilot id or email,
or register
Callsign
Passwort

Schedule Details

Flight Number: OEO2228
Departure: Zurich Airport (LSZH) at 20:35
Arrival: Thessaloniki International Airport (LGTS) at 22:55

Weather Information
Getting current METAR information for LSZH 230550Z VRB02KT 4200 BR BKN019 14/13 Q1026 NOSIG
Getting current METAR information for LGTS 230550Z VRB02KT CAVOK 27/18 Q1019 NOSIG

Schedule Frequency

Route Map